createdAt,value
2019-03-22T00:00:02.026Z,37
2019-03-22T00:00:05.664Z,38
2019-03-22T00:00:06.794Z,37
2019-03-22T00:00:09.067Z,39
2019-03-22T00:00:11.599Z,42
2019-03-22T00:00:18.802Z,41
2019-03-22T00:00:22.288Z,40
2019-03-22T00:00:27.038Z,42
2019-03-22T00:00:28.210Z,41
2019-03-22T00:00:32.872Z,42
2019-03-22T00:00:33.972Z,43
2019-03-22T00:00:39.967Z,39
2019-03-22T00:00:44.557Z,38
2019-03-22T00:00:48.105Z,39
2019-03-22T00:00:53.806Z,38
2019-03-22T00:01:12.671Z,36
2019-03-22T00:01:20.835Z,37
2019-03-22T00:01:25.026Z,36
2019-03-22T00:01:28.698Z,37
2019-03-22T00:01:31.069Z,39
2019-03-22T00:01:35.883Z,41
2019-03-22T00:01:38.336Z,39
2019-03-22T00:01:42.916Z,40
2019-03-22T00:01:47.628Z,41
2019-03-22T00:01:51.266Z,43
2019-03-22T00:01:54.750Z,44
2019-03-22T00:01:58.344Z,45
2019-03-22T00:02:01.895Z,43
2019-03-22T00:02:06.577Z,42
2019-03-22T00:02:11.367Z,43
2019-03-22T00:02:18.406Z,45
2019-03-22T00:02:23.020Z,44
2019-03-22T00:02:27.566Z,43
2019-03-22T00:02:31.207Z,42
2019-03-22T00:02:37.059Z,41
2019-03-22T00:02:39.454Z,40
2019-03-22T00:02:46.451Z,39
2019-03-22T00:02:56.928Z,41
2019-03-22T00:03:01.686Z,42
2019-03-22T00:03:06.410Z,43
2019-03-22T00:03:10.003Z,42
2019-03-22T00:03:13.644Z,40
2019-03-22T00:03:17.288Z,41
2019-03-22T00:03:23.055Z,40
2019-03-22T00:03:28.828Z,41
2019-03-22T00:03:34.796Z,40
2019-03-22T00:03:37.173Z,39
2019-03-22T00:03:43.048Z,40
2019-03-22T00:03:48.857Z,39
2019-03-22T00:03:53.556Z,38
2019-03-22T00:03:54.731Z,37
2019-03-22T00:04:05.342Z,38
2019-03-22T00:04:10.022Z,35
2019-03-22T00:04:15.964Z,36
2019-03-22T00:04:18.466Z,38
2019-03-22T00:04:23.080Z,40
2019-03-22T00:04:27.783Z,41
2019-03-22T00:04:32.585Z,42
2019-03-22T00:04:37.224Z,43
2019-03-22T00:04:45.146Z,44
2019-03-22T00:04:50.048Z,43
2019-03-22T00:04:54.744Z,42
2019-03-22T00:05:03.967Z,40
2019-03-22T00:05:13.219Z,39
2019-03-22T00:05:18.390Z,38
2019-03-22T00:05:25.457Z,39
2019-03-22T00:05:31.471Z,42
2019-03-22T00:05:36.274Z,45
2019-03-22T00:05:37.492Z,47
2019-03-22T00:05:42.068Z,49
2019-03-22T00:05:45.923Z,50
2019-03-22T00:05:50.698Z,53
2019-03-22T00:05:54.116Z,54
2019-03-22T00:06:01.188Z,38
2019-03-22T00:06:04.666Z,39
2019-03-22T00:06:09.345Z,38
2019-03-22T00:06:19.970Z,37
2019-03-22T00:06:24.658Z,38
2019-03-22T00:06:28.303Z,39
2019-03-22T00:06:34.012Z,40
2019-03-22T00:06:36.341Z,39
2019-03-22T00:06:43.470Z,36
2019-03-22T00:06:47.051Z,35
2019-03-22T00:06:49.432Z,34
2019-03-22T00:06:54.187Z,33
2019-03-22T00:06:56.448Z,32
2019-03-22T00:07:00.090Z,33
2019-03-22T00:07:02.310Z,34
2019-03-22T00:07:06.991Z,33
2019-03-22T00:07:11.540Z,34
2019-03-22T00:07:12.680Z,35
2019-03-22T00:07:18.647Z,34
2019-03-22T00:07:23.347Z,35
2019-03-22T00:07:32.559Z,37
2019-03-22T00:07:36.134Z,39
2019-03-22T00:07:41.994Z,40
2019-03-22T00:07:48.589Z,38
2019-03-22T00:07:57.119Z,37
2019-03-22T00:08:01.946Z,36
2019-03-22T00:08:05.433Z,35
2019-03-22T00:08:10.210Z,34
2019-03-22T00:08:13.986Z,35
2019-03-22T00:08:31.604Z,33
2019-03-22T00:08:40.020Z,37
2019-03-22T00:08:44.905Z,39
2019-03-22T00:08:47.320Z,40
2019-03-22T00:08:50.830Z,39
2019-03-22T00:08:56.673Z,38
2019-03-22T00:08:57.865Z,37
2019-03-22T00:09:03.460Z,38
2019-03-22T00:09:09.477Z,37
2019-03-22T00:09:14.203Z,36
2019-03-22T00:09:20.325Z,37
2019-03-22T00:09:33.201Z,39
2019-03-22T00:09:35.581Z,40
2019-03-22T00:09:43.972Z,39
2019-03-22T00:09:48.895Z,40
2019-03-22T00:09:55.780Z,41
2019-03-22T00:10:04.003Z,40
2019-03-22T00:10:12.318Z,39
2019-03-22T00:10:20.604Z,37
2019-03-22T00:10:24.286Z,39
2019-03-22T00:10:28.935Z,38
2019-03-22T00:10:33.656Z,39
2019-03-22T00:10:35.979Z,38
2019-03-22T00:10:38.398Z,39
2019-03-22T00:10:40.721Z,40
2019-03-22T00:10:50.160Z,39
2019-03-22T00:10:56.001Z,38
2019-03-22T00:11:00.755Z,39
2019-03-22T00:11:05.492Z,40
2019-03-22T00:11:13.791Z,39
2019-03-22T00:11:18.630Z,38
2019-03-22T00:11:23.395Z,36
2019-03-22T00:11:25.704Z,37
2019-03-22T00:11:29.101Z,36
2019-03-22T00:11:38.609Z,34
2019-03-22T00:11:44.461Z,32
2019-03-22T00:11:49.092Z,31
2019-03-22T00:11:54.917Z,30
2019-03-22T00:11:59.543Z,31
2019-03-22T00:12:09.266Z,35
2019-03-22T00:12:14.097Z,34
2019-03-22T00:12:26.912Z,33
2019-03-22T00:12:32.807Z,34
2019-03-22T00:12:36.357Z,32
2019-03-22T00:12:45.786Z,31
2019-03-22T00:12:58.727Z,32
2019-03-22T00:13:12.668Z,34
2019-03-22T00:13:17.536Z,36
2019-03-22T00:13:22.309Z,38
2019-03-22T00:13:24.755Z,39
2019-03-22T00:13:29.515Z,40
2019-03-22T00:13:40.101Z,41
2019-03-22T00:13:44.690Z,38
2019-03-22T00:13:47.069Z,37
2019-03-22T00:13:51.689Z,38
2019-03-22T00:13:54.043Z,39
2019-03-22T00:13:56.342Z,40
2019-03-22T00:13:58.746Z,38
2019-03-22T00:13:59.845Z,37
2019-03-22T00:14:05.646Z,36
2019-03-22T00:14:06.850Z,37
2019-03-22T00:14:10.383Z,36
2019-03-22T00:14:12.735Z,35
2019-03-22T00:14:16.293Z,34
2019-03-22T00:14:21.016Z,33
2019-03-22T00:14:24.564Z,31
2019-03-22T00:14:30.473Z,32
2019-03-22T00:14:32.817Z,31
2019-03-22T00:14:45.319Z,32
2019-03-22T00:14:53.022Z,33
2019-03-22T00:14:57.628Z,32
2019-03-22T00:15:04.914Z,31
2019-03-22T00:15:10.573Z,32
2019-03-22T00:15:12.956Z,31
2019-03-22T00:15:16.487Z,33
2019-03-22T00:15:20.044Z,34
2019-03-22T00:15:27.189Z,33
2019-03-22T00:15:29.583Z,32
2019-03-22T00:15:34.181Z,33
2019-03-22T00:15:36.499Z,32
2019-03-22T00:15:38.766Z,33
2019-03-22T00:15:39.880Z,34
2019-03-22T00:15:44.603Z,32
2019-03-22T00:15:46.960Z,33
2019-03-22T00:15:53.311Z,35
2019-03-22T00:15:59.246Z,34
2019-03-22T00:16:04.077Z,32
2019-03-22T00:16:08.879Z,31
2019-03-22T00:16:11.220Z,30
2019-03-22T00:16:16.113Z,29
2019-03-22T00:16:23.344Z,28
2019-03-22T00:16:32.792Z,26
2019-03-22T00:16:39.977Z,28
2019-03-22T00:16:49.371Z,29
2019-03-22T00:16:52.897Z,30
2019-03-22T00:17:04.750Z,31
2019-03-22T00:17:28.055Z,33
2019-03-22T00:17:32.741Z,31
2019-03-22T00:17:36.334Z,32
2019-03-22T00:17:44.665Z,33
2019-03-22T00:17:46.951Z,32
2019-03-22T00:17:56.591Z,31
2019-03-22T00:18:03.363Z,30
2019-03-22T00:18:06.817Z,28
2019-03-22T00:18:17.027Z,32
2019-03-22T00:18:20.565Z,30
2019-03-22T00:18:26.829Z,31
2019-03-22T00:18:35.195Z,32
2019-03-22T00:18:48.008Z,31
2019-03-22T00:18:51.669Z,32
2019-03-22T00:19:00.827Z,31
2019-03-22T00:19:07.873Z,32
2019-03-22T00:19:10.212Z,33
2019-03-22T00:19:19.793Z,32
2019-03-22T00:19:24.576Z,31
2019-03-22T00:19:30.496Z,32
2019-03-22T00:19:34.391Z,31
2019-03-22T00:19:42.708Z,30
2019-03-22T00:19:43.941Z,29
2019-03-22T00:19:48.874Z,30
2019-03-22T00:19:50.074Z,31
2019-03-22T00:19:54.811Z,30
2019-03-22T00:19:58.383Z,29
2019-03-22T00:20:03.272Z,28
2019-03-22T00:20:06.816Z,29
2019-03-22T00:20:14.915Z,31
2019-03-22T00:20:24.494Z,34
2019-03-22T00:20:26.413Z,33
2019-03-22T00:20:34.449Z,32
2019-03-22T00:20:43.872Z,34
2019-03-22T00:20:54.617Z,32
2019-03-22T00:21:04.143Z,31
2019-03-22T00:21:06.460Z,32
2019-03-22T00:21:11.212Z,33
2019-03-22T00:21:14.789Z,32
2019-03-22T00:21:16.018Z,34
2019-03-22T00:21:19.571Z,33
2019-03-22T00:21:25.412Z,32
2019-03-22T00:21:30.081Z,31
2019-03-22T00:21:33.438Z,32
2019-03-22T00:21:38.124Z,33
2019-03-22T00:21:42.857Z,35
2019-03-22T00:21:46.430Z,36
2019-03-22T00:21:51.187Z,37
2019-03-22T00:21:56.211Z,35
2019-03-22T00:21:59.787Z,34
2019-03-22T00:22:05.752Z,35
2019-03-22T00:22:08.089Z,33
2019-03-22T00:22:12.796Z,32
2019-03-22T00:22:17.499Z,30
2019-03-22T00:22:22.257Z,31
2019-03-22T00:22:27.760Z,32
2019-03-22T00:22:32.366Z,31
2019-03-22T00:22:39.192Z,32
2019-03-22T00:22:41.506Z,31
2019-03-22T00:22:47.504Z,30
2019-03-22T00:22:52.297Z,31
2019-03-22T00:22:57.015Z,32
2019-03-22T00:23:06.570Z,31
2019-03-22T00:23:10.161Z,32
2019-03-22T00:23:14.947Z,34
2019-03-22T00:23:22.078Z,37
2019-03-22T00:23:29.118Z,35
2019-03-22T00:23:32.680Z,34
2019-03-22T00:23:36.080Z,35
2019-03-22T00:23:42.520Z,36
2019-03-22T00:23:44.855Z,37
2019-03-22T00:23:47.215Z,36
2019-03-22T00:23:49.534Z,37
2019-03-22T00:23:54.744Z,36
2019-03-22T00:23:58.162Z,37
2019-03-22T00:23:59.347Z,38
2019-03-22T00:24:06.384Z,41
2019-03-22T00:24:07.575Z,42
2019-03-22T00:24:09.897Z,43
2019-03-22T00:24:13.473Z,44
2019-03-22T00:24:17.010Z,43
2019-03-22T00:24:21.782Z,41
2019-03-22T00:24:28.681Z,39
2019-03-22T00:24:32.322Z,38
2019-03-22T00:24:43.930Z,37
2019-03-22T00:24:48.359Z,36
2019-03-22T00:24:53.041Z,35
2019-03-22T00:24:57.908Z,34
2019-03-22T00:25:07.175Z,35
2019-03-22T00:25:16.427Z,34
2019-03-22T00:25:22.472Z,35
2019-03-22T00:25:33.001Z,34
2019-03-22T00:25:41.823Z,35
2019-03-22T00:25:45.356Z,36
2019-03-22T00:25:52.044Z,35
2019-03-22T00:25:53.273Z,36
2019-03-22T00:25:58.124Z,37
2019-03-22T00:26:00.454Z,36
2019-03-22T00:26:04.391Z,37
2019-03-22T00:26:09.132Z,39
2019-03-22T00:26:13.904Z,41
2019-03-22T00:26:17.808Z,42
2019-03-22T00:26:26.649Z,36
2019-03-22T00:26:29.120Z,37
2019-03-22T00:26:36.397Z,38
2019-03-22T00:26:41.104Z,40
2019-03-22T00:26:47.759Z,41
2019-03-22T00:26:50.883Z,40
2019-03-22T00:26:54.381Z,41
2019-03-22T00:26:56.750Z,42
2019-03-22T00:27:01.568Z,41
2019-03-22T00:27:17.099Z,42
2019-03-22T00:27:19.496Z,41
2019-03-22T00:27:24.258Z,42
2019-03-22T00:27:25.440Z,41
2019-03-22T00:27:29.036Z,43
2019-03-22T00:27:32.911Z,42
2019-03-22T00:27:40.093Z,43
2019-03-22T00:27:51.715Z,42
2019-03-22T00:27:55.308Z,41
2019-03-22T00:28:00.002Z,40
2019-03-22T00:28:03.529Z,39
2019-03-22T00:28:14.201Z,40
2019-03-22T00:28:22.420Z,39
2019-03-22T00:28:28.193Z,40
2019-03-22T00:28:32.819Z,42
2019-03-22T00:28:38.580Z,43
2019-03-22T00:28:43.479Z,44
2019-03-22T00:28:47.024Z,45
2019-03-22T00:28:54.088Z,44
2019-03-22T00:29:00.103Z,43
2019-03-22T00:29:06.050Z,45
2019-03-22T00:29:09.625Z,44
2019-03-22T00:29:13.248Z,43
2019-03-22T00:29:19.153Z,40
2019-03-22T00:29:20.290Z,41
2019-03-22T00:29:23.808Z,40
2019-03-22T00:29:27.345Z,39
2019-03-22T00:29:28.515Z,38
2019-03-22T00:29:32.071Z,41
2019-03-22T00:29:35.538Z,42
2019-03-22T00:29:38.929Z,41
2019-03-22T00:29:43.695Z,42
2019-03-22T00:29:48.382Z,43
2019-03-22T00:29:50.732Z,42
2019-03-22T00:29:57.905Z,45
2019-03-22T00:30:08.783Z,43
2019-03-22T00:30:15.818Z,44
2019-03-22T00:30:24.234Z,43
2019-03-22T00:30:31.278Z,39
2019-03-22T00:30:34.843Z,40
2019-03-22T00:30:38.411Z,39
2019-03-22T00:30:44.746Z,40
2019-03-22T00:30:50.630Z,41
2019-03-22T00:30:55.457Z,40
2019-03-22T00:30:57.857Z,41
2019-03-22T00:31:03.811Z,43
2019-03-22T00:31:07.432Z,44
2019-03-22T00:31:15.860Z,43
2019-03-22T00:31:21.821Z,45
2019-03-22T00:31:26.411Z,44
2019-03-22T00:31:31.195Z,45
2019-03-22T00:31:35.932Z,46
2019-03-22T00:31:39.560Z,45
2019-03-22T00:31:44.229Z,46
2019-03-22T00:31:48.976Z,47
2019-03-22T00:31:52.528Z,46
2019-03-22T00:31:57.302Z,44
2019-03-22T00:31:58.470Z,43
2019-03-22T00:32:01.956Z,44
2019-03-22T00:32:03.127Z,45
2019-03-22T00:32:04.319Z,44
2019-03-22T00:32:09.020Z,45
2019-03-22T00:32:11.441Z,44
2019-03-22T00:32:18.495Z,43
2019-03-22T00:32:24.506Z,44
2019-03-22T00:32:32.700Z,38
2019-03-22T00:32:37.471Z,39
2019-03-22T00:32:43.360Z,40
2019-03-22T00:32:50.252Z,39
2019-03-22T00:32:57.617Z,40
2019-03-22T00:33:02.264Z,41
2019-03-22T00:33:05.851Z,42
2019-03-22T00:33:15.430Z,41
2019-03-22T00:33:20.305Z,42
2019-03-22T00:33:27.209Z,43
2019-03-22T00:33:32.015Z,42
2019-03-22T00:33:35.905Z,43
2019-03-22T00:33:37.074Z,44
2019-03-22T00:33:46.307Z,45
2019-03-22T00:33:47.509Z,46
2019-03-22T00:33:51.083Z,45
2019-03-22T00:33:53.492Z,46
2019-03-22T00:33:56.956Z,47
2019-03-22T00:34:06.480Z,46
2019-03-22T00:34:16.148Z,47
2019-03-22T00:34:18.568Z,46
2019-03-22T00:34:24.378Z,45
2019-03-22T00:34:28.051Z,44
2019-03-22T00:34:34.923Z,48
2019-03-22T00:34:40.829Z,47
2019-03-22T00:34:45.430Z,45
2019-03-22T00:34:49.060Z,43
2019-03-22T00:34:55.037Z,42
2019-03-22T00:34:58.709Z,43
2019-03-22T00:35:14.163Z,42
2019-03-22T00:35:16.558Z,41
2019-03-22T00:35:22.416Z,42
2019-03-22T00:35:25.955Z,44
2019-03-22T00:35:29.505Z,45
2019-03-22T00:35:30.647Z,44
2019-03-22T00:35:35.300Z,45
2019-03-22T00:35:38.847Z,46
2019-03-22T00:35:44.945Z,45
2019-03-22T00:35:48.521Z,46
2019-03-22T00:35:55.383Z,48
2019-03-22T00:35:59.644Z,49
2019-03-22T00:36:03.245Z,50
2019-03-22T00:36:09.282Z,52
2019-03-22T00:36:13.985Z,50
2019-03-22T00:36:19.832Z,49
2019-03-22T00:36:20.977Z,50
2019-03-22T00:36:25.721Z,48
2019-03-22T00:36:26.882Z,47
2019-03-22T00:36:37.449Z,42
2019-03-22T00:36:44.620Z,41
2019-03-22T00:36:48.038Z,42
2019-03-22T00:36:54.058Z,43
2019-03-22T00:36:56.465Z,42
2019-03-22T00:37:02.303Z,41
2019-03-22T00:37:03.492Z,42
2019-03-22T00:37:07.028Z,41
2019-03-22T00:37:12.176Z,42
2019-03-22T00:37:16.823Z,44
2019-03-22T00:37:25.845Z,45
2019-03-22T00:37:30.616Z,44
2019-03-22T00:37:36.608Z,45
2019-03-22T00:37:39.052Z,44
2019-03-22T00:37:53.304Z,41
2019-03-22T00:37:59.259Z,42
2019-03-22T00:38:01.724Z,44
2019-03-22T00:38:05.240Z,45
2019-03-22T00:38:08.831Z,44
2019-03-22T00:38:12.510Z,46
2019-03-22T00:38:17.982Z,45
2019-03-22T00:38:26.123Z,44
2019-03-22T00:38:32.054Z,43
2019-03-22T00:38:39.234Z,41
2019-03-22T00:38:44.034Z,40
2019-03-22T00:38:48.742Z,38
2019-03-22T00:38:52.262Z,37
2019-03-22T00:39:00.439Z,36
2019-03-22T00:39:06.290Z,37
2019-03-22T00:39:09.875Z,39
2019-03-22T00:39:12.274Z,38
2019-03-22T00:39:20.275Z,39
2019-03-22T00:39:23.720Z,40
2019-03-22T00:39:28.332Z,42
2019-03-22T00:39:35.338Z,44
2019-03-22T00:39:37.774Z,43
2019-03-22T00:39:44.837Z,42
2019-03-22T00:39:50.770Z,40
2019-03-22T00:39:56.899Z,43
2019-03-22T00:40:04.037Z,44
2019-03-22T00:40:06.432Z,43
2019-03-22T00:40:14.856Z,41
2019-03-22T00:40:20.781Z,42
2019-03-22T00:40:25.531Z,41
2019-03-22T00:40:30.356Z,44
2019-03-22T00:40:43.247Z,43
2019-03-22T00:40:49.298Z,44
2019-03-22T00:41:00.822Z,43
2019-03-22T00:41:06.550Z,40
2019-03-22T00:41:08.933Z,39
2019-03-22T00:41:13.704Z,40
2019-03-22T00:41:17.397Z,41
2019-03-22T00:41:23.965Z,42
2019-03-22T00:41:28.696Z,41
2019-03-22T00:41:31.205Z,42
2019-03-22T00:41:33.739Z,40
2019-03-22T00:41:38.631Z,41
2019-03-22T00:41:46.900Z,42
2019-03-22T00:41:51.697Z,41
2019-03-22T00:41:56.543Z,43
2019-03-22T00:41:59.989Z,44
2019-03-22T00:42:02.322Z,43
2019-03-22T00:42:08.248Z,44
2019-03-22T00:42:11.882Z,43
2019-03-22T00:42:17.733Z,45
2019-03-22T00:42:23.536Z,44
2019-03-22T00:42:37.907Z,43
2019-03-22T00:42:44.877Z,39
2019-03-22T00:42:47.440Z,38
2019-03-22T00:42:52.110Z,39
2019-03-22T00:42:59.989Z,41
2019-03-22T00:43:08.029Z,40
2019-03-22T00:43:16.233Z,39
2019-03-22T00:43:19.659Z,40
2019-03-22T00:43:25.744Z,41
2019-03-22T00:43:29.177Z,40
2019-03-22T00:43:34.994Z,39
2019-03-22T00:43:41.025Z,40
2019-03-22T00:43:47.928Z,39
2019-03-22T00:43:53.909Z,41
2019-03-22T00:44:03.318Z,42
2019-03-22T00:44:06.958Z,41
2019-03-22T00:44:11.561Z,40
2019-03-22T00:44:17.494Z,41
2019-03-22T00:44:18.628Z,40
2019-03-22T00:44:24.353Z,39
2019-03-22T00:44:32.580Z,40
2019-03-22T00:44:33.727Z,41
2019-03-22T00:44:39.613Z,40
2019-03-22T00:44:40.786Z,39
2019-03-22T00:44:49.108Z,40
2019-03-22T00:44:53.828Z,38
2019-03-22T00:44:57.412Z,39
2019-03-22T00:45:00.795Z,38
2019-03-22T00:45:06.545Z,41
2019-03-22T00:45:09.990Z,42
2019-03-22T00:45:14.691Z,43
2019-03-22T00:45:21.969Z,42
2019-03-22T00:45:26.856Z,43
2019-03-22T00:45:30.370Z,42
2019-03-22T00:45:37.409Z,43
2019-03-22T00:45:50.760Z,42
2019-03-22T00:45:55.409Z,43
2019-03-22T00:46:00.219Z,42
2019-03-22T00:46:05.028Z,41
2019-03-22T00:46:11.937Z,40
2019-03-22T00:46:20.218Z,41
2019-03-22T00:46:24.847Z,40
2019-03-22T00:46:28.396Z,41
2019-03-22T00:46:36.815Z,40
2019-03-22T00:46:40.583Z,41
2019-03-22T00:46:45.338Z,42
2019-03-22T00:46:47.802Z,43
2019-03-22T00:46:59.701Z,42
2019-03-22T00:47:04.534Z,41
2019-03-22T00:47:11.470Z,42
2019-03-22T00:47:13.831Z,41
2019-03-22T00:47:18.625Z,39
2019-03-22T00:47:25.723Z,38
2019-03-22T00:47:31.699Z,37
2019-03-22T00:47:34.105Z,39
2019-03-22T00:47:38.979Z,40
2019-03-22T00:47:40.199Z,41
2019-03-22T00:47:50.634Z,38
2019-03-22T00:47:54.262Z,37
2019-03-22T00:47:58.913Z,38
2019-03-22T00:48:02.360Z,39
2019-03-22T00:48:07.056Z,37
2019-03-22T00:48:14.043Z,39
2019-03-22T00:48:37.785Z,41
2019-03-22T00:48:40.250Z,40
2019-03-22T00:48:46.502Z,42
2019-03-22T00:48:48.971Z,41
2019-03-22T00:48:54.986Z,42
2019-03-22T00:49:02.133Z,40
2019-03-22T00:49:04.482Z,41
2019-03-22T00:49:08.079Z,40
2019-03-22T00:49:14.036Z,42
2019-03-22T00:49:18.834Z,43
2019-03-22T00:49:21.128Z,42
2019-03-22T00:49:23.538Z,40
2019-03-22T00:49:29.396Z,39
2019-03-22T00:49:42.347Z,38
2019-03-22T00:49:53.977Z,39
2019-03-22T00:49:57.543Z,40
2019-03-22T00:50:05.695Z,39
2019-03-22T00:50:07.932Z,40
2019-03-22T00:50:11.330Z,41
2019-03-22T00:50:17.248Z,40
2019-03-22T00:50:28.936Z,39
2019-03-22T00:50:32.403Z,41
2019-03-22T00:50:38.428Z,39
2019-03-22T00:50:46.723Z,38
2019-03-22T00:50:50.226Z,39
2019-03-22T00:51:06.319Z,42
2019-03-22T00:51:09.126Z,43
2019-03-22T00:51:12.727Z,42
2019-03-22T00:51:16.188Z,43
2019-03-22T00:51:17.346Z,44
2019-03-22T00:51:22.034Z,45
2019-03-22T00:51:30.092Z,44
2019-03-22T00:51:34.507Z,43
2019-03-22T00:51:36.951Z,45
2019-03-22T00:51:41.635Z,44
2019-03-22T00:51:44.155Z,45
2019-03-22T00:51:46.583Z,44
2019-03-22T00:51:55.993Z,39
2019-03-22T00:52:01.917Z,40
2019-03-22T00:52:05.551Z,38
2019-03-22T00:52:13.558Z,37
2019-03-22T00:52:20.663Z,38
2019-03-22T00:52:27.733Z,39
2019-03-22T00:52:31.215Z,40
2019-03-22T00:52:36.020Z,39
2019-03-22T00:52:44.309Z,40
2019-03-22T00:52:50.128Z,39
2019-03-22T00:52:58.626Z,42
2019-03-22T00:53:02.130Z,41
2019-03-22T00:53:03.336Z,42
2019-03-22T00:53:07.902Z,43
2019-03-22T00:53:14.275Z,44
2019-03-22T00:53:21.296Z,43
2019-03-22T00:53:27.415Z,44
2019-03-22T00:53:30.954Z,43
2019-03-22T00:53:36.717Z,42
2019-03-22T00:53:42.506Z,43
2019-03-22T00:53:47.229Z,42
2019-03-22T00:53:56.614Z,38
2019-03-22T00:54:02.477Z,37
2019-03-22T00:54:06.039Z,36
2019-03-22T00:54:09.607Z,37
2019-03-22T00:54:14.342Z,36
2019-03-22T00:54:24.884Z,34
2019-03-22T00:54:32.007Z,36
2019-03-22T00:54:35.576Z,37
2019-03-22T00:54:48.806Z,39
2019-03-22T00:54:54.785Z,41
2019-03-22T00:54:57.182Z,43
2019-03-22T00:55:03.016Z,44
2019-03-22T00:55:06.576Z,43
2019-03-22T00:55:07.721Z,42
2019-03-22T00:55:14.861Z,39
2019-03-22T00:55:19.817Z,41
2019-03-22T00:55:20.972Z,38
2019-03-22T00:55:26.763Z,37
2019-03-22T00:55:30.427Z,38
2019-03-22T00:55:36.237Z,36
2019-03-22T00:55:39.738Z,35
2019-03-22T00:55:56.335Z,36
2019-03-22T00:56:02.280Z,39
2019-03-22T00:56:05.761Z,41
2019-03-22T00:56:10.500Z,42
2019-03-22T00:56:14.225Z,41
2019-03-22T00:56:22.461Z,40
2019-03-22T00:56:25.859Z,41
2019-03-22T00:56:31.614Z,42
2019-03-22T00:56:32.706Z,41
2019-03-22T00:56:47.911Z,40
2019-03-22T00:56:52.819Z,36
2019-03-22T00:57:02.090Z,35
2019-03-22T00:57:05.533Z,36
2019-03-22T00:57:06.721Z,35
2019-03-22T00:57:10.336Z,38
2019-03-22T00:57:12.621Z,37
2019-03-22T00:57:29.117Z,38
2019-03-22T00:57:32.654Z,37
2019-03-22T00:57:38.100Z,36
2019-03-22T00:57:42.886Z,35
2019-03-22T00:57:47.593Z,36
2019-03-22T00:57:52.469Z,38
2019-03-22T00:57:54.877Z,39
2019-03-22T00:57:57.383Z,40
2019-03-22T00:58:02.072Z,41
2019-03-22T00:58:04.834Z,42
2019-03-22T00:58:07.072Z,41
2019-03-22T00:58:10.561Z,42
2019-03-22T00:58:11.682Z,41
2019-03-22T00:58:15.297Z,44
2019-03-22T00:58:17.647Z,43
2019-03-22T00:58:21.040Z,42
2019-03-22T00:58:31.627Z,41
2019-03-22T00:58:36.420Z,40
2019-03-22T00:58:39.849Z,39
2019-03-22T00:58:50.906Z,37
2019-03-22T00:58:54.327Z,36
2019-03-22T00:59:03.529Z,43
2019-03-22T00:59:11.862Z,44
2019-03-22T00:59:14.392Z,45
2019-03-22T00:59:18.038Z,44
2019-03-22T00:59:27.532Z,43
2019-03-22T00:59:32.215Z,42
2019-03-22T00:59:35.667Z,41
2019-03-22T00:59:40.342Z,39
2019-03-22T00:59:47.327Z,37
2019-03-22T00:59:54.308Z,36
2019-03-22T01:00:02.945Z,35
2019-03-22T01:00:04.140Z,36
2019-03-22T01:00:10.177Z,37
2019-03-22T01:00:21.892Z,36
2019-03-22T01:00:28.819Z,37
2019-03-22T01:00:33.641Z,40
2019-03-22T01:00:39.306Z,41
2019-03-22T01:00:45.272Z,40
2019-03-22T01:00:47.716Z,41
2019-03-22T01:00:56.163Z,43
2019-03-22T01:01:04.344Z,38
2019-03-22T01:01:10.146Z,36
2019-03-22T01:01:16.209Z,37
2019-03-22T01:01:20.912Z,38
2019-03-22T01:01:23.378Z,39
2019-03-22T01:01:30.497Z,40
2019-03-22T01:01:35.081Z,39
2019-03-22T01:01:38.502Z,38
2019-03-22T01:01:53.873Z,39
2019-03-22T01:02:03.676Z,38
2019-03-22T01:02:08.311Z,39
2019-03-22T01:02:16.491Z,40
2019-03-22T01:02:20.011Z,39
2019-03-22T01:02:34.203Z,40
2019-03-22T01:02:40.231Z,41
2019-03-22T01:02:44.914Z,42
2019-03-22T01:02:49.614Z,41
2019-03-22T01:02:55.520Z,43
2019-03-22T01:03:00.247Z,42
2019-03-22T01:03:03.769Z,43
2019-03-22T01:03:04.985Z,41
2019-03-22T01:03:06.178Z,42
2019-03-22T01:03:09.835Z,41
2019-03-22T01:03:12.192Z,39
2019-03-22T01:03:20.462Z,38
2019-03-22T01:03:25.479Z,37
2019-03-22T01:03:31.538Z,38
2019-03-22T01:03:40.801Z,39
2019-03-22T01:03:46.895Z,38
2019-03-22T01:03:49.366Z,40
2019-03-22T01:03:55.382Z,41
2019-03-22T01:03:57.744Z,39
2019-03-22T01:04:08.121Z,41
2019-03-22T01:04:10.489Z,39
2019-03-22T01:04:16.414Z,41
2019-03-22T01:04:18.778Z,39
2019-03-22T01:04:24.895Z,40
2019-03-22T01:04:29.593Z,39
2019-03-22T01:04:30.713Z,38
2019-03-22T01:04:34.332Z,39
2019-03-22T01:04:45.960Z,36
2019-03-22T01:04:49.436Z,39
2019-03-22T01:04:54.093Z,38
2019-03-22T01:05:12.622Z,35
2019-03-22T01:05:14.962Z,36
2019-03-22T01:05:18.490Z,38
2019-03-22T01:05:19.678Z,36
2019-03-22T01:05:23.729Z,37
2019-03-22T01:05:27.438Z,38
2019-03-22T01:05:30.986Z,37
2019-03-22T01:05:32.093Z,38
2019-03-22T01:05:36.834Z,39
2019-03-22T01:05:39.107Z,40
2019-03-22T01:05:45.034Z,38
2019-03-22T01:05:53.447Z,39
2019-03-22T01:05:59.456Z,38
2019-03-22T01:06:02.998Z,39
2019-03-22T01:06:12.239Z,37
2019-03-22T01:06:15.649Z,35
2019-03-22T01:06:21.584Z,32
2019-03-22T01:06:25.076Z,31
2019-03-22T01:06:31.031Z,33
2019-03-22T01:06:39.074Z,32
2019-03-22T01:06:53.944Z,33
2019-03-22T01:06:57.427Z,34
2019-03-22T01:07:02.190Z,35
2019-03-22T01:07:06.961Z,36
2019-03-22T01:07:12.965Z,34
2019-03-22T01:07:17.740Z,35
2019-03-22T01:07:21.321Z,37
2019-03-22T01:07:24.962Z,39
2019-03-22T01:07:29.787Z,40
2019-03-22T01:07:34.504Z,39
2019-03-22T01:07:37.919Z,38
2019-03-22T01:07:39.033Z,37
2019-03-22T01:07:46.065Z,36
2019-03-22T01:07:49.586Z,35
2019-03-22T01:07:53.111Z,37
2019-03-22T01:07:57.999Z,38
2019-03-22T01:08:14.231Z,34
2019-03-22T01:08:16.619Z,33
2019-03-22T01:08:22.389Z,34
2019-03-22T01:08:23.659Z,36
2019-03-22T01:08:25.976Z,35
2019-03-22T01:08:27.150Z,34
2019-03-22T01:08:31.812Z,36
2019-03-22T01:08:34.788Z,37
2019-03-22T01:08:38.228Z,36
2019-03-22T01:08:39.394Z,37
2019-03-22T01:08:44.191Z,36
2019-03-22T01:08:48.850Z,37
2019-03-22T01:08:51.117Z,36
2019-03-22T01:08:52.237Z,37
2019-03-22T01:09:02.841Z,39
2019-03-22T01:09:06.363Z,40
2019-03-22T01:09:08.816Z,42
2019-03-22T01:09:13.486Z,43
2019-03-22T01:09:17.119Z,40
2019-03-22T01:09:20.826Z,41
2019-03-22T01:09:27.029Z,39
2019-03-22T01:09:33.024Z,40
2019-03-22T01:09:36.762Z,39
2019-03-22T01:09:41.475Z,37
2019-03-22T01:09:46.198Z,36
2019-03-22T01:09:49.725Z,34
2019-03-22T01:09:55.562Z,35
2019-03-22T01:09:56.678Z,34
2019-03-22T01:10:05.133Z,31
2019-03-22T01:10:06.315Z,30
2019-03-22T01:10:16.948Z,34
2019-03-22T01:10:20.519Z,35
2019-03-22T01:10:26.422Z,34
2019-03-22T01:10:28.819Z,35
2019-03-22T01:10:31.215Z,38
2019-03-22T01:10:35.928Z,39
2019-03-22T01:10:39.449Z,37
2019-03-22T01:10:45.159Z,36
2019-03-22T01:10:51.206Z,38
2019-03-22T01:10:55.823Z,36
2019-03-22T01:10:56.958Z,35
2019-03-22T01:11:00.436Z,34
2019-03-22T01:11:03.941Z,32
2019-03-22T01:11:07.541Z,34
2019-03-22T01:11:11.083Z,35
2019-03-22T01:11:14.576Z,36
2019-03-22T01:11:18.226Z,34
2019-03-22T01:11:22.780Z,35
2019-03-22T01:11:27.587Z,34
2019-03-22T01:11:32.266Z,35
2019-03-22T01:11:33.392Z,34
2019-03-22T01:11:39.377Z,33
2019-03-22T01:11:40.567Z,34
2019-03-22T01:11:52.336Z,33
2019-03-22T01:12:05.305Z,32
2019-03-22T01:12:11.441Z,33
2019-03-22T01:12:18.430Z,35
2019-03-22T01:12:23.404Z,34
2019-03-22T01:12:28.145Z,33
2019-03-22T01:12:31.762Z,34
2019-03-22T01:12:36.574Z,35
2019-03-22T01:12:41.217Z,36
2019-03-22T01:12:43.699Z,35
2019-03-22T01:12:49.631Z,36
2019-03-22T01:12:55.372Z,35
2019-03-22T01:12:59.975Z,34
2019-03-22T01:13:01.113Z,35
2019-03-22T01:13:08.396Z,33
2019-03-22T01:13:13.132Z,34
2019-03-22T01:13:17.816Z,32
2019-03-22T01:13:20.061Z,33
2019-03-22T01:13:23.613Z,32
2019-03-22T01:13:27.172Z,30
2019-03-22T01:13:34.630Z,34
2019-03-22T01:13:37.049Z,32
2019-03-22T01:13:49.990Z,33
2019-03-22T01:13:54.712Z,34
2019-03-22T01:14:00.650Z,35
2019-03-22T01:14:06.591Z,36
2019-03-22T01:14:10.145Z,35
2019-03-22T01:14:20.606Z,34
2019-03-22T01:14:23.038Z,32
2019-03-22T01:14:28.911Z,33
2019-03-22T01:14:32.377Z,34
2019-03-22T01:14:37.301Z,33
2019-03-22T01:14:41.039Z,34
2019-03-22T01:14:46.972Z,36
2019-03-22T01:14:49.275Z,37
2019-03-22T01:14:51.735Z,38
2019-03-22T01:14:54.229Z,37